createdAt,value
2018-06-10T00:00:41.239Z,23.93
2018-06-10T00:03:09.960Z,25.37
2018-06-10T00:05:38.155Z,25.37
2018-06-10T00:08:06.952Z,27.30
2018-06-10T00:10:35.497Z,25.90
2018-06-10T00:13:04.155Z,27.13
2018-06-10T00:15:32.908Z,27.27
2018-06-10T00:18:01.739Z,25.03
2018-06-10T00:20:30.256Z,24.83
2018-06-10T00:22:58.815Z,25.17
2018-06-10T00:25:27.482Z,27.33
2018-06-10T00:27:55.970Z,27.37
2018-06-10T00:30:24.552Z,25.07
2018-06-10T00:32:53.380Z,26.37
2018-06-10T00:35:21.984Z,28.27
2018-06-10T00:37:50.776Z,28.67
2018-06-10T00:40:19.404Z,22.77
2018-06-10T00:42:48.096Z,21.53
2018-06-10T00:45:16.937Z,19.53
2018-06-10T00:47:45.918Z,20.13
2018-06-10T00:50:14.439Z,19.57
2018-06-10T00:52:42.976Z,20.60
2018-06-10T00:55:11.605Z,20.67
2018-06-10T00:57:40.156Z,19.37
2018-06-10T01:00:08.670Z,17.93
2018-06-10T01:02:37.298Z,16.50
2018-06-10T01:05:05.836Z,16.13
2018-06-10T01:07:34.538Z,16.20
2018-06-10T01:10:03.019Z,19.83
2018-06-10T01:12:31.798Z,16.73
2018-06-10T01:15:00.429Z,19.00
2018-06-10T01:17:29.173Z,21.20
2018-06-10T01:19:57.798Z,20.23
2018-06-10T01:22:26.307Z,20.07
2018-06-10T01:24:55.121Z,22.00
2018-06-10T01:27:23.657Z,20.23
2018-06-10T01:29:52.298Z,19.27
2018-06-10T01:32:21.001Z,14.43
2018-06-10T01:34:49.605Z,15.70
2018-06-10T01:37:18.363Z,12.87
2018-06-10T01:39:46.934Z,13.67
2018-06-10T01:42:15.726Z,13.73
2018-06-10T01:44:44.339Z,13.60
2018-06-10T01:47:12.863Z,12.63
2018-06-10T01:49:41.519Z,11.57
2018-06-10T01:52:10.472Z,13.83
2018-06-10T01:54:39.013Z,13.90
2018-06-10T01:57:07.657Z,14.43
2018-06-10T01:59:35.831Z,14.30
2018-06-10T02:02:04.656Z,14.90
2018-06-10T02:04:33.629Z,12.97
2018-06-10T02:07:02.118Z,15.20
2018-06-10T02:09:30.708Z,14.70
2018-06-10T02:11:59.223Z,13.93
2018-06-10T02:14:28.204Z,16.90
2018-06-10T02:16:56.813Z,16.53
2018-06-10T02:19:25.495Z,17.70
2018-06-10T02:21:54.177Z,15.47
2018-06-10T02:24:23.123Z,15.30
2018-06-10T02:26:51.620Z,17.50
2018-06-10T02:29:20.120Z,16.03
2018-06-10T02:31:48.714Z,16.30
2018-06-10T02:34:17.202Z,16.93
2018-06-10T02:36:45.939Z,18.57
2018-06-10T02:39:14.424Z,18.27
2018-06-10T02:41:43.056Z,17.33
2018-06-10T02:44:11.528Z,16.80
2018-06-10T02:46:40.052Z,17.33
2018-06-10T02:49:08.695Z,18.17
2018-06-10T02:51:37.308Z,18.33
2018-06-10T02:54:06.151Z,19.30
2018-06-10T02:56:34.651Z,17.27
2018-06-10T02:59:03.325Z,19.27
2018-06-10T03:01:31.844Z,18.93
2018-06-10T03:04:00.630Z,16.13
2018-06-10T03:06:29.130Z,17.37
2018-06-10T03:08:57.823Z,16.03
2018-06-10T03:11:26.484Z,15.43
2018-06-10T03:13:55.197Z,16.50
2018-06-10T03:16:23.666Z,16.47
2018-06-10T03:18:52.295Z,16.90
2018-06-10T03:21:20.760Z,19.50
2018-06-10T03:23:49.269Z,19.50
2018-06-10T03:26:17.872Z,17.73
2018-06-10T03:28:46.071Z,17.60
2018-06-10T03:31:15.143Z,17.43
2018-06-10T03:33:43.645Z,18.40
2018-06-10T03:36:12.140Z,18.13
2018-06-10T03:38:40.728Z,17.67
2018-06-10T03:41:09.488Z,17.47
2018-06-10T03:43:37.957Z,18.30
2018-06-10T03:46:06.605Z,17.97
2018-06-10T03:48:35.073Z,18.37
2018-06-10T03:51:03.817Z,18.27
2018-06-10T03:53:31.982Z,16.40
2018-06-10T03:56:00.487Z,17.60
2018-06-10T03:58:29.008Z,15.87
2018-06-10T04:00:57.867Z,16.33
2018-06-10T04:03:26.353Z,16.37
2018-06-10T04:05:54.881Z,15.80
2018-06-10T04:08:23.394Z,16.97
2018-06-10T04:10:51.939Z,18.20
2018-06-10T04:13:20.441Z,17.37
2018-06-10T04:15:49.202Z,17.03
2018-06-10T04:18:17.662Z,18.40
2018-06-10T04:20:46.119Z,18.63
2018-06-10T04:23:14.698Z,19.33
2018-06-10T04:25:43.251Z,16.43
2018-06-10T04:28:12.091Z,16.77
2018-06-10T04:30:40.876Z,18.97
2018-06-10T04:33:09.366Z,16.70
2018-06-10T04:35:37.859Z,15.50
2018-06-10T04:38:06.382Z,16.57
2018-06-10T04:40:34.944Z,16.07
2018-06-10T04:43:03.739Z,16.97
2018-06-10T04:45:32.219Z,15.87
2018-06-10T04:48:00.720Z,16.83
2018-06-10T04:50:29.403Z,17.13
2018-06-10T04:52:57.596Z,17.10
2018-06-10T04:55:26.188Z,17.40
2018-06-10T04:57:54.822Z,16.80
2018-06-10T05:00:23.511Z,16.33
2018-06-10T05:02:52.165Z,18.13
2018-06-10T05:05:20.716Z,17.30
2018-06-10T05:07:49.276Z,16.60
2018-06-10T05:10:17.970Z,17.57
2018-06-10T05:12:46.462Z,18.20
2018-06-10T05:15:14.988Z,17.13
2018-06-10T05:17:43.498Z,16.70
2018-06-10T05:20:11.849Z,17.07
2018-06-10T05:22:40.339Z,18.63
2018-06-10T05:25:08.925Z,17.70
2018-06-10T05:27:37.476Z,18.13
2018-06-10T05:30:06.050Z,17.33
2018-06-10T05:32:34.914Z,16.10
2018-06-10T05:35:03.436Z,15.90
2018-06-10T05:37:32.211Z,16.03
2018-06-10T05:40:00.745Z,17.93
2018-06-10T05:42:29.192Z,16.87
2018-06-10T05:44:57.724Z,18.23
2018-06-10T05:47:26.236Z,16.07
2018-06-10T05:49:54.724Z,15.90
2018-06-10T05:52:23.227Z,15.57
2018-06-10T05:54:51.959Z,16.47
2018-06-10T05:57:20.504Z,15.30
2018-06-10T05:59:48.995Z,15.73
2018-06-10T06:02:17.549Z,16.47
2018-06-10T06:04:46.055Z,17.47
2018-06-10T06:07:14.767Z,17.07
2018-06-10T06:09:43.296Z,17.20
2018-06-10T06:12:11.793Z,17.43
2018-06-10T06:14:40.328Z,16.73
2018-06-10T06:17:09.018Z,16.20
2018-06-10T06:19:37.505Z,16.70
2018-06-10T06:22:06.114Z,18.00
2018-06-10T06:24:34.814Z,15.97
2018-06-10T06:27:03.367Z,16.73
2018-06-10T06:29:31.899Z,16.03
2018-06-10T06:32:00.736Z,14.30
2018-06-10T06:34:29.205Z,15.63
2018-06-10T06:36:57.794Z,15.67
2018-06-10T06:39:26.515Z,16.07
2018-06-10T06:41:55.359Z,15.33
2018-06-10T06:44:23.904Z,15.40
2018-06-10T06:46:52.860Z,16.13
2018-06-10T06:49:21.368Z,14.83
2018-06-10T06:51:49.909Z,14.10
2018-06-10T06:54:18.686Z,13.83
2018-06-10T06:56:47.396Z,16.30
2018-06-10T06:59:16.115Z,15.20
2018-06-10T07:01:44.702Z,14.70
2018-06-10T07:04:13.281Z,14.40
2018-06-10T07:06:42.013Z,14.33
2018-06-10T07:09:10.771Z,13.73
2018-06-10T07:11:39.552Z,11.13
2018-06-10T07:14:08.071Z,10.63
2018-06-10T07:16:36.547Z,12.17
2018-06-10T07:19:05.312Z,11.23
2018-06-10T07:21:34.168Z,11.37
2018-06-10T07:24:02.709Z,12.57
2018-06-10T07:26:31.388Z,12.10
2018-06-10T07:28:59.909Z,11.63
2018-06-10T07:31:28.419Z,11.20
2018-06-10T07:33:57.299Z,10.43
2018-06-10T07:36:26.054Z,10.30
2018-06-10T07:38:54.803Z,11.87
2018-06-10T07:41:23.501Z,12.43
2018-06-10T07:43:52.226Z,12.07
2018-06-10T07:46:21.691Z,10.43
2018-06-10T07:48:50.227Z,11.57
2018-06-10T07:51:18.960Z,11.40
2018-06-10T07:53:47.670Z,10.82
2018-06-10T07:56:16.176Z,10.23
2018-06-10T07:58:45.104Z,11.00
2018-06-10T08:01:13.998Z,9.75
2018-06-10T08:03:42.779Z,9.78
2018-06-10T08:06:11.515Z,9.68
2018-06-10T08:08:40.230Z,10.33
2018-06-10T08:11:08.932Z,10.63
2018-06-10T08:13:37.649Z,10.95
2018-06-10T08:16:06.365Z,11.63
2018-06-10T08:18:35.213Z,10.67
2018-06-10T08:21:04.015Z,10.80
2018-06-10T08:23:32.691Z,11.75
2018-06-10T08:26:01.701Z,11.95
2018-06-10T08:28:30.330Z,11.05
2018-06-10T08:30:58.882Z,9.48
2018-06-10T08:33:27.876Z,10.10
2018-06-10T08:35:56.412Z,10.48
2018-06-10T08:38:25.324Z,9.80
2018-06-10T08:40:54.172Z,10.25
2018-06-10T08:43:22.912Z,9.70
2018-06-10T08:45:51.513Z,9.75
2018-06-10T08:48:20.255Z,9.70
2018-06-10T08:50:49.049Z,9.28
2018-06-10T08:53:18.049Z,10.38
2018-06-10T08:55:47.097Z,10.13
2018-06-10T08:58:15.644Z,9.28
2018-06-10T09:00:44.140Z,9.45
2018-06-10T09:03:12.702Z,9.33
2018-06-10T09:05:41.258Z,9.43
2018-06-10T09:08:09.935Z,8.08
2018-06-10T09:10:38.777Z,8.40
2018-06-10T09:13:07.474Z,7.92
2018-06-10T09:15:36.342Z,7.35
2018-06-10T09:18:05.213Z,8.10
2018-06-10T09:20:33.915Z,7.05
2018-06-10T09:23:02.551Z,7.08
2018-06-10T09:25:31.146Z,6.33
2018-06-10T09:28:00.790Z,6.80
2018-06-10T09:30:29.656Z,6.10
2018-06-10T09:32:58.442Z,6.37
2018-06-10T09:35:27.112Z,6.25
2018-06-10T09:37:55.576Z,6.03
2018-06-10T09:40:24.322Z,6.67
2018-06-10T09:42:53.305Z,6.70
2018-06-10T09:45:22.100Z,6.30
2018-06-10T09:47:50.855Z,5.97
2018-06-10T09:50:19.409Z,6.28
2018-06-10T09:52:48.943Z,6.50
2018-06-10T09:55:17.636Z,6.65
2018-06-10T09:57:46.601Z,6.45
2018-06-10T10:00:23.325Z,5.83
2018-06-10T10:02:52.057Z,7.85
2018-06-10T10:05:21.042Z,8.68
2018-06-10T10:07:49.673Z,8.00
2018-06-10T10:10:18.332Z,8.18
2018-06-10T10:12:46.893Z,9.00
2018-06-10T10:15:15.746Z,9.08
2018-06-10T10:17:44.929Z,9.85
2018-06-10T10:20:16.701Z,9.98
2018-06-10T10:22:45.461Z,10.23
2018-06-10T10:25:14.167Z,12.13
2018-06-10T10:27:42.746Z,14.65
2018-06-10T10:30:11.402Z,13.20
2018-06-10T10:32:40.045Z,13.83
2018-06-10T10:35:08.802Z,13.45
2018-06-10T10:37:39.088Z,13.80
2018-06-10T10:40:07.907Z,12.47
2018-06-10T10:42:36.808Z,11.60
2018-06-10T10:45:05.790Z,11.35
2018-06-10T10:47:34.687Z,10.08
2018-06-10T10:50:03.598Z,9.03
2018-06-10T10:52:32.245Z,8.25
2018-06-10T10:55:01.143Z,8.08
2018-06-10T10:57:29.761Z,7.42
2018-06-10T10:59:58.341Z,7.37
2018-06-10T11:02:27.043Z,7.12
2018-06-10T11:04:55.943Z,6.33
2018-06-10T11:07:24.809Z,5.60
2018-06-10T11:09:53.769Z,6.05
2018-06-10T11:12:22.529Z,5.65
2018-06-10T11:14:51.344Z,6.87
2018-06-10T11:17:20.623Z,5.80
2018-06-10T11:19:49.527Z,5.40
2018-06-10T11:22:18.189Z,5.00
2018-06-10T11:24:46.947Z,6.47
2018-06-10T11:27:15.870Z,5.97
2018-06-10T11:29:44.503Z,6.03
2018-06-10T11:32:13.456Z,5.70
2018-06-10T11:34:42.283Z,5.70
2018-06-10T11:37:11.519Z,6.40
2018-06-10T11:39:40.692Z,6.85
2018-06-10T11:42:09.652Z,6.42
2018-06-10T11:44:38.221Z,5.05
2018-06-10T11:47:07.103Z,6.62
2018-06-10T11:49:35.814Z,6.37
2018-06-10T11:52:04.830Z,6.67
2018-06-10T11:54:33.716Z,6.08
2018-06-10T11:57:02.437Z,5.83
2018-06-10T11:59:31.396Z,6.50
2018-06-10T12:02:00.430Z,5.90
2018-06-10T12:04:29.237Z,5.70
2018-06-10T12:06:58.392Z,6.60
2018-06-10T12:09:27.172Z,8.20
2018-06-10T12:11:55.767Z,10.43
2018-06-10T12:14:24.680Z,10.30
2018-06-10T12:16:53.661Z,10.50
2018-06-10T12:19:22.651Z,10.53
2018-06-10T12:21:51.352Z,9.80
2018-06-10T12:24:20.475Z,9.13
2018-06-10T12:26:49.308Z,9.50
2018-06-10T12:29:18.451Z,9.23
2018-06-10T12:31:47.416Z,8.73
2018-06-10T12:34:16.383Z,8.18
2018-06-10T12:36:45.231Z,8.63
2018-06-10T12:39:14.590Z,8.78
2018-06-10T12:41:43.548Z,8.90
2018-06-10T12:44:12.568Z,9.28
2018-06-10T12:46:41.448Z,8.85
2018-06-10T12:49:10.447Z,10.98
2018-06-10T12:51:39.904Z,9.60
2018-06-10T12:54:08.746Z,10.58
2018-06-10T12:56:37.387Z,10.82
2018-06-10T12:59:06.160Z,11.10
2018-06-10T13:01:35.173Z,10.45
2018-06-10T13:04:04.026Z,11.35
2018-06-10T13:06:32.811Z,12.00
2018-06-10T13:09:02.114Z,13.55
2018-06-10T13:11:30.893Z,15.50
2018-06-10T13:14:00.074Z,20.40
2018-06-10T13:16:29.139Z,19.80
2018-06-10T13:18:57.863Z,17.52
2018-06-10T13:21:26.975Z,18.67
2018-06-10T13:23:55.745Z,20.90
2018-06-10T13:26:24.581Z,14.85
2018-06-10T13:28:53.751Z,14.50
2018-06-10T13:31:23.506Z,17.25
2018-06-10T13:33:52.241Z,15.38
2018-06-10T13:36:21.115Z,18.37
2018-06-10T13:38:49.975Z,16.77
2018-06-10T13:41:18.845Z,14.35
2018-06-10T13:43:47.785Z,14.68
2018-06-10T13:46:16.417Z,16.77
2018-06-10T13:48:45.155Z,19.30
2018-06-10T13:51:13.880Z,20.37
2018-06-10T13:53:42.898Z,16.80
2018-06-10T13:56:11.640Z,16.35
2018-06-10T13:58:41.424Z,16.48
2018-06-10T14:01:10.082Z,13.62
2018-06-10T14:03:39.162Z,15.95
2018-06-10T14:06:08.766Z,15.72
2018-06-10T14:08:37.452Z,15.75
2018-06-10T14:11:06.074Z,14.25
2018-06-10T14:13:34.849Z,15.55
2018-06-10T14:16:03.511Z,13.38
2018-06-10T14:18:32.236Z,14.80
2018-06-10T14:21:00.854Z,13.18
2018-06-10T14:23:29.670Z,14.00
2018-06-10T14:25:58.419Z,13.08
2018-06-10T14:28:27.201Z,12.58
2018-06-10T14:30:56.052Z,11.63
2018-06-10T14:33:24.643Z,12.45
2018-06-10T14:35:53.649Z,11.33
2018-06-10T14:38:22.457Z,11.35
2018-06-10T14:40:51.162Z,11.38
2018-06-10T14:43:19.684Z,10.63
2018-06-10T14:45:48.316Z,10.63
2018-06-10T14:48:17.266Z,10.70
2018-06-10T14:50:46.017Z,10.63
2018-06-10T14:53:15.315Z,9.80
2018-06-10T14:55:44.014Z,10.38
2018-06-10T14:58:12.679Z,10.98
2018-06-10T15:00:41.356Z,9.80
2018-06-10T15:03:10.240Z,10.53
2018-06-10T15:05:39.141Z,11.75
2018-06-10T15:08:07.879Z,12.95
2018-06-10T15:10:36.737Z,11.53
2018-06-10T15:13:06.588Z,10.68
2018-06-10T15:15:35.599Z,10.82
2018-06-10T15:18:04.846Z,10.08
2018-06-10T15:20:33.675Z,9.20
2018-06-10T15:23:02.359Z,11.60
2018-06-10T15:25:31.407Z,10.75
2018-06-10T15:28:00.348Z,9.38
2018-06-10T15:30:29.173Z,11.00
2018-06-10T15:32:58.345Z,9.78
2018-06-10T15:35:26.970Z,9.00
2018-06-10T15:37:55.708Z,9.53
2018-06-10T15:40:24.467Z,9.30
2018-06-10T15:42:52.693Z,9.38
2018-06-10T15:45:21.687Z,9.58
2018-06-10T15:47:50.514Z,8.43
2018-06-10T15:50:19.575Z,8.33
2018-06-10T15:52:48.272Z,8.10
2018-06-10T15:55:17.186Z,9.43
2018-06-10T15:57:45.750Z,9.45
2018-06-10T16:00:14.662Z,9.33
2018-06-10T16:02:43.765Z,10.08
2018-06-10T16:05:12.638Z,9.58
2018-06-10T16:07:41.603Z,10.00
2018-06-10T16:10:10.511Z,10.20
2018-06-10T16:12:39.426Z,10.05
2018-06-10T16:15:08.268Z,10.98
2018-06-10T16:17:37.228Z,9.68
2018-06-10T16:20:06.032Z,11.53
2018-06-10T16:22:35.049Z,12.65
2018-06-10T16:25:03.884Z,12.23
2018-06-10T16:27:32.637Z,11.22
2018-06-10T16:30:01.242Z,12.35
2018-06-10T16:32:30.090Z,11.85
2018-06-10T16:34:59.375Z,14.20
2018-06-10T16:37:28.201Z,13.95
2018-06-10T16:39:57.094Z,13.55
2018-06-10T16:42:25.862Z,12.37
2018-06-10T16:44:54.823Z,14.30
2018-06-10T16:47:23.613Z,13.70
2018-06-10T16:49:52.552Z,13.85
2018-06-10T16:52:21.387Z,13.88
2018-06-10T16:54:50.182Z,14.58
2018-06-10T16:57:18.776Z,15.90
2018-06-10T16:59:47.584Z,16.00
2018-06-10T17:02:16.591Z,15.70
2018-06-10T17:04:45.195Z,15.98
2018-06-10T17:07:13.907Z,16.30
2018-06-10T17:09:42.625Z,16.07
2018-06-10T17:12:11.687Z,15.40
2018-06-10T17:14:40.294Z,15.03
2018-06-10T17:17:09.373Z,15.10
2018-06-10T17:19:38.129Z,14.93
2018-06-10T17:22:07.176Z,14.87
2018-06-10T17:24:35.722Z,14.98
2018-06-10T17:27:04.760Z,14.78
2018-06-10T17:29:33.604Z,14.73
2018-06-10T17:32:01.869Z,14.83
2018-06-10T17:34:30.220Z,15.15
2018-06-10T17:36:58.905Z,14.07
2018-06-10T17:39:27.786Z,12.82
2018-06-10T17:41:56.519Z,14.35
2018-06-10T17:44:25.357Z,14.68
2018-06-10T17:46:54.332Z,12.95
2018-06-10T17:49:23.057Z,14.38
2018-06-10T17:51:51.934Z,14.20
2018-06-10T17:54:21.222Z,13.78
2018-06-10T17:56:50.075Z,13.68
2018-06-10T17:59:19.097Z,14.07
2018-06-10T18:01:47.918Z,14.28
2018-06-10T18:04:16.792Z,14.45
2018-06-10T18:06:46.014Z,14.60
2018-06-10T18:09:14.978Z,15.75
2018-06-10T18:11:44.787Z,16.62
2018-06-10T18:14:13.733Z,15.47
2018-06-10T18:16:42.468Z,14.65
2018-06-10T18:19:11.552Z,15.40
2018-06-10T18:21:40.687Z,15.00
2018-06-10T18:24:09.909Z,16.43
2018-06-10T18:26:39.297Z,13.27
2018-06-10T18:29:08.543Z,14.97
2018-06-10T18:31:37.425Z,15.33
2018-06-10T18:34:06.590Z,14.37
2018-06-10T18:36:35.109Z,14.47
2018-06-10T18:39:04.212Z,15.70
2018-06-10T18:41:33.197Z,14.87
2018-06-10T18:44:02.287Z,14.83
2018-06-10T18:46:31.310Z,14.57
2018-06-10T18:49:00.758Z,14.37
2018-06-10T18:51:29.648Z,15.23
2018-06-10T18:53:57.989Z,14.43
2018-06-10T18:56:26.610Z,14.27
2018-06-10T18:58:55.399Z,15.47
2018-06-10T19:01:24.502Z,14.13
2018-06-10T19:03:53.317Z,14.53
2018-06-10T19:06:22.106Z,14.77
2018-06-10T19:08:51.192Z,15.47
2018-06-10T19:11:20.049Z,14.53
2018-06-10T19:13:50.238Z,14.07
2018-06-10T19:16:19.324Z,15.20
2018-06-10T19:18:48.199Z,15.47
2018-06-10T19:21:17.204Z,16.63
2018-06-10T19:23:46.005Z,15.63
2018-06-10T19:26:14.610Z,16.20
2018-06-10T19:28:43.682Z,17.00
2018-06-10T19:31:12.389Z,16.33
2018-06-10T19:33:41.226Z,16.47
2018-06-10T19:36:10.142Z,16.30
2018-06-10T19:38:39.085Z,14.63
2018-06-10T19:41:07.751Z,16.83
2018-06-10T19:43:36.361Z,16.87
2018-06-10T19:46:05.446Z,16.47
2018-06-10T19:48:34.053Z,17.33
2018-06-10T19:51:02.969Z,17.17
2018-06-10T19:53:31.777Z,19.07
2018-06-10T19:56:00.615Z,18.03
2018-06-10T19:58:29.793Z,17.40
2018-06-10T20:00:58.464Z,18.40
2018-06-10T20:03:27.114Z,18.97
2018-06-10T20:05:55.984Z,18.60
2018-06-10T20:08:24.969Z,16.50
2018-06-10T20:10:53.802Z,18.70
2018-06-10T20:13:22.495Z,17.13
2018-06-10T20:15:51.678Z,18.10
2018-06-10T20:18:20.512Z,17.93
2018-06-10T20:20:49.447Z,18.90
2018-06-10T20:23:18.154Z,19.97
2018-06-10T20:25:47.465Z,19.37
2018-06-10T20:28:16.055Z,17.20
2018-06-10T20:30:44.791Z,18.37
2018-06-10T20:33:13.301Z,18.87
2018-06-10T20:35:42.255Z,18.73
2018-06-10T20:38:11.274Z,18.67
2018-06-10T20:40:40.257Z,20.53
2018-06-10T20:43:08.853Z,20.80
2018-06-10T20:45:37.839Z,19.60
2018-06-10T20:48:06.672Z,20.13
2018-06-10T20:50:35.693Z,18.40
2018-06-10T20:53:04.288Z,20.60
2018-06-10T20:55:33.223Z,18.17
2018-06-10T20:58:02.157Z,19.77
2018-06-10T21:00:30.772Z,19.87
2018-06-10T21:02:59.527Z,18.80
2018-06-10T21:05:28.304Z,19.20
2018-06-10T21:07:57.005Z,20.60
2018-06-10T21:10:25.891Z,20.43
2018-06-10T21:12:54.752Z,20.07
2018-06-10T21:15:23.661Z,21.53
2018-06-10T21:17:52.406Z,21.57
2018-06-10T21:20:21.163Z,20.23
2018-06-10T21:22:50.176Z,21.07
2018-06-10T21:25:19.202Z,21.57
2018-06-10T21:27:47.880Z,21.17
2018-06-10T21:30:16.597Z,20.10
2018-06-10T21:32:45.309Z,20.33
2018-06-10T21:35:14.003Z,20.67
2018-06-10T21:37:42.805Z,19.73
2018-06-10T21:40:11.767Z,20.27
2018-06-10T21:42:40.584Z,21.10
2018-06-10T21:45:09.478Z,19.67
2018-06-10T21:47:38.063Z,18.53
2018-06-10T21:50:06.945Z,18.93
2018-06-10T21:52:35.836Z,21.27
2018-06-10T21:55:04.577Z,19.83
2018-06-10T21:57:33.471Z,20.87
2018-06-10T22:00:02.180Z,19.33
2018-06-10T22:02:30.849Z,19.77
2018-06-10T22:04:59.534Z,21.30
2018-06-10T22:07:28.072Z,19.67
2018-06-10T22:09:56.855Z,20.93
2018-06-10T22:12:25.638Z,20.83
2018-06-10T22:14:54.166Z,19.60
2018-06-10T22:17:23.168Z,20.30
2018-06-10T22:19:51.677Z,19.97
2018-06-10T22:22:20.222Z,19.43
2018-06-10T22:24:48.806Z,20.13
2018-06-10T22:27:17.587Z,18.00
2018-06-10T22:29:46.935Z,20.00
2018-06-10T22:32:15.537Z,20.07
2018-06-10T22:34:44.072Z,19.87
2018-06-10T22:37:12.829Z,19.00
2018-06-10T22:39:41.378Z,19.87
2018-06-10T22:42:09.887Z,20.57
2018-06-10T22:44:38.446Z,19.50
2018-06-10T22:47:07.239Z,18.83
2018-06-10T22:49:36.160Z,18.50
2018-06-10T22:52:04.844Z,18.30
2018-06-10T22:54:47.870Z,19.60
2018-06-10T22:57:16.821Z,19.43
2018-06-10T22:59:45.614Z,18.67
2018-06-10T23:02:14.349Z,19.20
2018-06-10T23:04:43.041Z,19.30
2018-06-10T23:07:11.635Z,19.40
2018-06-10T23:09:40.328Z,18.70
2018-06-10T23:12:09.163Z,21.23
2018-06-10T23:14:37.768Z,20.13
2018-06-10T23:17:06.255Z,20.33
2018-06-10T23:19:34.920Z,20.13
2018-06-10T23:22:03.389Z,19.97
2018-06-10T23:24:31.978Z,19.20
2018-06-10T23:27:00.737Z,20.10
2018-06-10T23:29:29.422Z,19.77
2018-06-10T23:31:57.995Z,20.57
2018-06-10T23:34:26.676Z,19.27
2018-06-10T23:36:55.339Z,19.53
2018-06-10T23:39:23.980Z,19.00
2018-06-10T23:41:52.706Z,20.13
2018-06-10T23:44:21.218Z,17.60
2018-06-10T23:46:50.138Z,18.87
2018-06-10T23:49:18.852Z,18.07
2018-06-10T23:51:47.379Z,17.50
2018-06-10T23:54:16.252Z,19.77
2018-06-10T23:56:44.662Z,19.90
2018-06-10T23:59:13.276Z,18.53
